createdAt,value
2018-04-15T00:00:23.987Z,1008.37
2018-04-15T00:01:23.991Z,1008.34
2018-04-15T00:02:23.982Z,1008.29
2018-04-15T00:03:44.944Z,1008.26
2018-04-15T00:04:44.957Z,1008.24
2018-04-15T00:05:23.960Z,1008.21
2018-04-15T00:06:23.946Z,1008.20
2018-04-15T00:07:23.901Z,1008.18
2018-04-15T00:08:44.871Z,1008.15
2018-04-15T00:09:44.844Z,1008.11
2018-04-15T00:10:23.844Z,1008.11
2018-04-15T00:11:23.833Z,1008.08
2018-04-15T00:12:23.804Z,1008.07
2018-04-15T00:13:44.780Z,1008.02
2018-04-15T00:14:44.761Z,1008.05
2018-04-15T00:15:23.768Z,1007.99
2018-04-15T00:16:23.732Z,1008.02
2018-04-15T00:17:23.706Z,1008.06
2018-04-15T00:18:44.691Z,1008.07
2018-04-15T00:19:44.752Z,1008.05
2018-04-15T00:20:23.679Z,1008.06
2018-04-15T00:21:23.660Z,1008.07
2018-04-15T00:22:23.641Z,1008.02
2018-04-15T00:23:44.623Z,1007.97
2018-04-15T00:24:44.619Z,1008.02
2018-04-15T00:25:23.602Z,1008.01
2018-04-15T00:26:23.563Z,1007.96
2018-04-15T00:27:23.558Z,1007.95
2018-04-15T00:28:44.546Z,1007.93
2018-04-15T00:29:44.516Z,1007.92
2018-04-15T00:30:23.557Z,1007.90
2018-04-15T00:31:23.481Z,1007.95
2018-04-15T00:32:23.471Z,1007.92
2018-04-15T00:33:44.460Z,1007.95
2018-04-15T00:34:44.447Z,1007.92
2018-04-15T00:35:23.418Z,1007.95
2018-04-15T00:36:23.405Z,1007.95
2018-04-15T00:37:23.393Z,1007.96
2018-04-15T00:38:44.400Z,1007.93
2018-04-15T00:39:44.364Z,1007.94
2018-04-15T00:40:23.332Z,1007.92
2018-04-15T00:41:23.356Z,1007.93
2018-04-15T00:42:23.305Z,1007.90
2018-04-15T00:43:44.296Z,1007.86
2018-04-15T00:44:44.279Z,1007.91
2018-04-15T00:45:23.292Z,1007.89
2018-04-15T00:46:23.234Z,1007.86
2018-04-15T00:47:23.223Z,1007.84
2018-04-15T00:48:44.240Z,1007.83
2018-04-15T00:49:44.192Z,1007.81
2018-04-15T00:50:23.200Z,1007.81
2018-04-15T00:51:23.198Z,1007.85
2018-04-15T00:52:23.153Z,1007.83
2018-04-15T00:53:44.129Z,1007.79
2018-04-15T00:54:44.114Z,1007.84
2018-04-15T00:55:23.085Z,1007.83
2018-04-15T00:56:23.123Z,1007.81
2018-04-15T00:57:23.072Z,1007.80
2018-04-15T00:58:44.040Z,1007.77
2018-04-15T00:59:44.056Z,1007.78
2018-04-15T01:00:23.046Z,1007.75
2018-04-15T01:01:23.015Z,1007.73
2018-04-15T01:02:22.994Z,1007.74
2018-04-15T01:03:44.072Z,1007.70
2018-04-15T01:04:43.945Z,1007.72
2018-04-15T01:05:23.044Z,1007.71
2018-04-15T01:06:22.920Z,1007.66
2018-04-15T01:07:22.903Z,1007.64
2018-04-15T01:08:43.891Z,1007.67
2018-04-15T01:09:43.872Z,1007.60
2018-04-15T01:10:23.762Z,1007.63
2018-04-15T01:11:22.835Z,1007.63
2018-04-15T01:12:22.825Z,1007.65
2018-04-15T01:13:43.818Z,1007.63
2018-04-15T01:14:43.809Z,1007.65
2018-04-15T01:15:22.901Z,1007.63
2018-04-15T01:16:22.755Z,1007.63
2018-04-15T01:17:22.764Z,1007.63
2018-04-15T01:18:43.728Z,1007.60
2018-04-15T01:19:43.703Z,1007.68
2018-04-15T01:20:22.741Z,1007.71
2018-04-15T01:21:22.673Z,1007.77
2018-04-15T01:22:22.690Z,1007.90
2018-04-15T01:23:43.746Z,1008.14
2018-04-15T01:24:43.638Z,1008.26
2018-04-15T01:25:22.618Z,1008.22
2018-04-15T01:26:22.615Z,1008.15
2018-04-15T01:27:22.581Z,1008.04
2018-04-15T01:28:43.558Z,1008.01
2018-04-15T01:29:43.539Z,1008.01
2018-04-15T01:30:22.527Z,1008.03
2018-04-15T01:31:22.507Z,1008.04
2018-04-15T01:32:22.506Z,1008.04
2018-04-15T01:33:43.543Z,1008.02
2018-04-15T01:34:43.509Z,1008.03
2018-04-15T01:35:22.485Z,1008.02
2018-04-15T01:36:22.449Z,1008.01
2018-04-15T01:37:22.401Z,1007.97
2018-04-15T01:38:43.419Z,1008.02
2018-04-15T01:39:43.405Z,1008.01
2018-04-15T01:40:22.363Z,1007.98
2018-04-15T01:41:22.346Z,1008.00
2018-04-15T01:42:22.351Z,1007.97
2018-04-15T01:43:43.338Z,1007.94
2018-04-15T01:44:43.298Z,1007.96
2018-04-15T01:45:22.277Z,1007.97
2018-04-15T01:46:22.258Z,1007.91
2018-04-15T01:47:22.262Z,1007.93
2018-04-15T01:48:43.246Z,1007.90
2018-04-15T01:49:43.217Z,1007.88
2018-04-15T01:50:22.195Z,1007.88
2018-04-15T01:51:22.188Z,1007.85
2018-04-15T01:52:22.166Z,1007.80
2018-04-15T01:53:43.155Z,1007.77
2018-04-15T01:54:43.141Z,1007.81
2018-04-15T01:55:22.139Z,1007.73
2018-04-15T01:56:22.111Z,1007.74
2018-04-15T01:57:22.140Z,1007.71
2018-04-15T01:58:43.087Z,1007.72
2018-04-15T01:59:43.087Z,1007.72
2018-04-15T02:00:22.051Z,1007.71
2018-04-15T02:01:22.014Z,1007.73
2018-04-15T02:02:22.003Z,1007.73
2018-04-15T02:03:43.004Z,1007.73
2018-04-15T02:04:42.969Z,1007.72
2018-04-15T02:05:21.962Z,1007.74
2018-04-15T02:06:21.940Z,1007.76
2018-04-15T02:07:21.931Z,1007.75
2018-04-15T02:08:42.907Z,1007.68
2018-04-15T02:09:42.896Z,1007.71
2018-04-15T02:10:21.884Z,1007.71
2018-04-15T02:11:21.869Z,1007.72
2018-04-15T02:12:21.841Z,1007.64
2018-04-15T02:13:42.834Z,1007.67
2018-04-15T02:14:42.822Z,1007.62
2018-04-15T02:15:21.795Z,1007.60
2018-04-15T02:16:21.798Z,1007.58
2018-04-15T02:17:21.761Z,1007.58
2018-04-15T02:18:42.752Z,1007.61
2018-04-15T02:19:42.745Z,1007.54
2018-04-15T02:20:21.716Z,1007.57
2018-04-15T02:21:21.721Z,1007.56
2018-04-15T02:22:21.685Z,1007.50
2018-04-15T02:23:42.685Z,1007.50
2018-04-15T02:24:42.653Z,1007.51
2018-04-15T02:25:21.632Z,1007.52
2018-04-15T02:26:21.619Z,1007.52
2018-04-15T02:27:21.627Z,1007.47
2018-04-15T02:28:42.597Z,1007.45
2018-04-15T02:29:42.583Z,1007.47
2018-04-15T02:30:21.577Z,1007.43
2018-04-15T02:31:21.541Z,1007.46
2018-04-15T02:32:21.527Z,1007.43
2018-04-15T02:33:42.511Z,1007.40
2018-04-15T02:34:42.495Z,1007.36
2018-04-15T02:35:21.468Z,1007.37
2018-04-15T02:36:21.462Z,1007.31
2018-04-15T02:37:21.439Z,1007.32
2018-04-15T02:38:42.431Z,1007.33
2018-04-15T02:39:42.425Z,1007.31
2018-04-15T02:40:21.400Z,1007.28
2018-04-15T02:41:21.403Z,1007.25
2018-04-15T02:42:21.392Z,1007.29
2018-04-15T02:43:42.373Z,1007.26
2018-04-15T02:44:42.330Z,1007.28
2018-04-15T02:45:21.352Z,1007.25
2018-04-15T02:46:21.298Z,1007.20
2018-04-15T02:47:21.290Z,1007.24
2018-04-15T02:48:42.286Z,1007.21
2018-04-15T02:49:42.280Z,1007.20
2018-04-15T02:50:21.236Z,1007.19
2018-04-15T02:51:21.222Z,1007.20
2018-04-15T02:52:21.191Z,1007.16
2018-04-15T02:53:42.193Z,1007.17
2018-04-15T02:54:42.178Z,1007.14
2018-04-15T02:55:21.169Z,1007.12
2018-04-15T02:56:21.198Z,1007.11
2018-04-15T02:57:21.119Z,1007.13
2018-04-15T02:58:42.100Z,1007.09
2018-04-15T02:59:42.091Z,1007.12
2018-04-15T03:00:21.067Z,1007.14
2018-04-15T03:01:21.055Z,1007.10
2018-04-15T03:02:21.079Z,1007.08
2018-04-15T03:03:42.027Z,1007.08
2018-04-15T03:04:42.011Z,1007.06
2018-04-15T03:05:20.983Z,1007.06
2018-04-15T03:06:20.986Z,1007.08
2018-04-15T03:07:20.964Z,1007.11
2018-04-15T03:08:41.938Z,1007.12
2018-04-15T03:09:41.921Z,1007.10
2018-04-15T03:10:20.899Z,1007.16
2018-04-15T03:11:20.901Z,1007.13
2018-04-15T03:12:20.879Z,1007.11
2018-04-15T03:13:41.877Z,1007.09
2018-04-15T03:14:41.860Z,1007.13
2018-04-15T03:15:20.823Z,1007.12
2018-04-15T03:16:20.806Z,1007.13
2018-04-15T03:17:20.795Z,1007.12
2018-04-15T03:18:41.794Z,1007.13
2018-04-15T03:19:41.766Z,1007.14
2018-04-15T03:20:20.742Z,1007.14
2018-04-15T03:21:20.789Z,1007.15
2018-04-15T03:22:20.710Z,1007.15
2018-04-15T03:23:41.718Z,1007.14
2018-04-15T03:24:41.675Z,1007.10
2018-04-15T03:25:20.660Z,1007.08
2018-04-15T03:26:20.647Z,1007.12
2018-04-15T03:27:20.640Z,1007.10
2018-04-15T03:28:41.624Z,1007.11
2018-04-15T03:29:41.607Z,1007.16
2018-04-15T03:30:20.576Z,1007.13
2018-04-15T03:31:20.562Z,1007.13
2018-04-15T03:32:20.552Z,1007.14
2018-04-15T03:33:41.542Z,1007.12
2018-04-15T03:34:41.513Z,1007.09
2018-04-15T03:35:20.494Z,1007.10
2018-04-15T03:36:20.477Z,1007.10
2018-04-15T03:37:20.481Z,1007.12
2018-04-15T03:38:41.461Z,1007.14
2018-04-15T03:39:41.451Z,1007.12
2018-04-15T03:40:20.416Z,1007.12
2018-04-15T03:41:20.395Z,1007.11
2018-04-15T03:42:20.394Z,1007.13
2018-04-15T03:43:41.370Z,1007.08
2018-04-15T03:44:41.350Z,1007.10
2018-04-15T03:45:20.333Z,1007.14
2018-04-15T03:46:20.319Z,1007.13
2018-04-15T03:47:20.299Z,1007.11
2018-04-15T03:48:41.285Z,1007.08
2018-04-15T03:49:41.299Z,1007.08
2018-04-15T03:50:20.255Z,1007.11
2018-04-15T03:51:20.236Z,1007.09
2018-04-15T03:52:20.220Z,1007.11
2018-04-15T03:53:41.212Z,1007.11
2018-04-15T03:54:41.184Z,1007.10
2018-04-15T03:55:20.187Z,1007.09
2018-04-15T03:56:20.154Z,1007.13
2018-04-15T03:57:20.134Z,1007.16
2018-04-15T03:58:41.129Z,1007.13
2018-04-15T03:59:41.104Z,1007.11
2018-04-15T04:00:20.102Z,1007.15
2018-04-15T04:01:20.071Z,1007.17
2018-04-15T04:02:20.065Z,1007.16
2018-04-15T04:03:41.037Z,1007.15
2018-04-15T04:04:41.031Z,1007.14
2018-04-15T04:05:19.996Z,1007.12
2018-04-15T04:06:20.005Z,1007.13
2018-04-15T04:07:19.969Z,1007.18
2018-04-15T04:08:41.007Z,1007.18
2018-04-15T04:09:40.939Z,1007.19
2018-04-15T04:10:19.927Z,1007.15
2018-04-15T04:11:19.910Z,1007.14
2018-04-15T04:12:19.888Z,1007.17
2018-04-15T04:13:40.886Z,1007.19
2018-04-15T04:14:40.849Z,1007.15
2018-04-15T04:15:19.871Z,1007.16
2018-04-15T04:16:19.818Z,1007.14
2018-04-15T04:17:19.875Z,1007.15
2018-04-15T04:18:40.783Z,1007.19
2018-04-15T04:19:40.773Z,1007.20
2018-04-15T04:20:19.753Z,1007.22
2018-04-15T04:21:19.743Z,1007.23
2018-04-15T04:22:19.712Z,1007.22
2018-04-15T04:23:40.720Z,1007.20
2018-04-15T04:24:40.695Z,1007.17
2018-04-15T04:25:19.667Z,1007.14
2018-04-15T04:26:19.690Z,1007.10
2018-04-15T04:27:19.635Z,1007.08
2018-04-15T04:28:40.625Z,1007.12
2018-04-15T04:29:40.599Z,1007.13
2018-04-15T04:30:19.585Z,1007.12
2018-04-15T04:31:19.561Z,1007.14
2018-04-15T04:32:19.549Z,1007.09
2018-04-15T04:33:40.533Z,1007.11
2018-04-15T04:34:40.524Z,1007.12
2018-04-15T04:35:19.493Z,1007.06
2018-04-15T04:36:19.496Z,1007.13
2018-04-15T04:37:19.461Z,1007.08
2018-04-15T04:38:40.516Z,1007.09
2018-04-15T04:39:40.437Z,1007.09
2018-04-15T04:40:19.421Z,1007.09
2018-04-15T04:41:19.581Z,1007.09
2018-04-15T04:42:19.377Z,1007.07
2018-04-15T04:43:40.377Z,1007.09
2018-04-15T04:44:40.341Z,1007.07
2018-04-15T04:45:19.364Z,1007.06
2018-04-15T04:46:19.314Z,1007.06
2018-04-15T04:47:19.293Z,1007.04
2018-04-15T04:48:40.286Z,1007.06
2018-04-15T04:49:40.273Z,1007.04
2018-04-15T04:50:19.246Z,1007.04
2018-04-15T04:51:19.231Z,1007.07
2018-04-15T04:52:19.202Z,1007.04
2018-04-15T04:53:40.192Z,1007.07
2018-04-15T04:54:40.190Z,1007.13
2018-04-15T04:55:19.154Z,1007.08
2018-04-15T04:56:19.142Z,1007.12
2018-04-15T04:57:19.126Z,1007.08
2018-04-15T04:58:40.099Z,1007.10
2018-04-15T04:59:40.089Z,1007.09
2018-04-15T05:00:19.069Z,1007.08
2018-04-15T05:01:19.073Z,1007.09
2018-04-15T05:02:19.047Z,1007.10
2018-04-15T05:03:40.018Z,1007.08
2018-04-15T05:04:40.017Z,1007.09
2018-04-15T05:05:19.034Z,1007.11
2018-04-15T05:06:18.966Z,1007.08
2018-04-15T05:07:18.967Z,1007.12
2018-04-15T05:08:39.948Z,1007.03
2018-04-15T05:09:39.921Z,1007.07
2018-04-15T05:10:18.889Z,1007.07
2018-04-15T05:11:18.886Z,1007.06
2018-04-15T05:12:18.862Z,1007.08
2018-04-15T05:13:39.876Z,1007.08
2018-04-15T05:14:39.847Z,1007.12
2018-04-15T05:15:18.812Z,1007.14
2018-04-15T05:16:18.795Z,1007.16
2018-04-15T05:17:18.770Z,1007.17
2018-04-15T05:18:39.753Z,1007.16
2018-04-15T05:19:39.738Z,1007.17
2018-04-15T05:20:18.738Z,1007.09
2018-04-15T05:21:18.702Z,1007.10
2018-04-15T05:22:18.684Z,1007.15
2018-04-15T05:23:39.665Z,1007.15
2018-04-15T05:24:39.658Z,1007.15
2018-04-15T05:25:18.635Z,1007.17
2018-04-15T05:26:18.614Z,1007.15
2018-04-15T05:27:18.593Z,1007.16
2018-04-15T05:28:39.584Z,1007.21
2018-04-15T05:29:39.571Z,1007.21
2018-04-15T05:30:18.541Z,1007.26
2018-04-15T05:31:18.546Z,1007.24
2018-04-15T05:32:18.546Z,1007.27
2018-04-15T05:33:39.501Z,1007.24
2018-04-15T05:34:39.470Z,1007.30
2018-04-15T05:35:18.475Z,1007.31
2018-04-15T05:36:18.448Z,1007.28
2018-04-15T05:37:18.420Z,1007.25
2018-04-15T05:38:39.405Z,1007.27
2018-04-15T05:39:39.405Z,1007.27
2018-04-15T05:40:18.377Z,1007.25
2018-04-15T05:41:18.348Z,1007.21
2018-04-15T05:42:18.332Z,1007.28
2018-04-15T05:43:39.337Z,1007.24
2018-04-15T05:44:39.295Z,1007.25
2018-04-15T05:45:18.295Z,1007.26
2018-04-15T05:46:18.270Z,1007.27
2018-04-15T05:47:18.257Z,1007.28
2018-04-15T05:48:39.288Z,1007.26
2018-04-15T05:49:39.215Z,1007.29
2018-04-15T05:50:18.198Z,1007.26
2018-04-15T05:51:18.183Z,1007.28
2018-04-15T05:52:18.167Z,1007.22
2018-04-15T05:53:39.157Z,1007.27
2018-04-15T05:54:39.131Z,1007.25
2018-04-15T05:55:18.128Z,1007.22
2018-04-15T05:56:18.095Z,1007.23
2018-04-15T05:57:18.078Z,1007.20
2018-04-15T05:58:39.055Z,1007.16
2018-04-15T05:59:39.040Z,1007.20
2018-04-15T06:00:18.023Z,1007.17
2018-04-15T06:01:18.004Z,1007.17
2018-04-15T06:02:17.984Z,1007.19
2018-04-15T06:03:38.978Z,1007.15
2018-04-15T06:04:38.950Z,1007.14
2018-04-15T06:05:17.963Z,1007.16
2018-04-15T06:06:17.915Z,1007.16
2018-04-15T06:07:17.911Z,1007.11
2018-04-15T06:08:38.885Z,1007.12
2018-04-15T06:09:38.866Z,1007.15
2018-04-15T06:10:17.881Z,1007.12
2018-04-15T06:11:17.842Z,1007.14
2018-04-15T06:12:17.818Z,1007.12
2018-04-15T06:13:38.860Z,1007.10
2018-04-15T06:14:38.790Z,1007.11
2018-04-15T06:15:17.762Z,1007.06
2018-04-15T06:16:17.754Z,1007.10
2018-04-15T06:17:17.729Z,1007.09
2018-04-15T06:18:38.740Z,1007.07
2018-04-15T06:19:38.691Z,1007.03
2018-04-15T06:20:17.670Z,1007.07
2018-04-15T06:21:17.648Z,1007.04
2018-04-15T06:22:17.646Z,1007.05
2018-04-15T06:23:38.635Z,1007.05
2018-04-15T06:24:38.706Z,1007.03
2018-04-15T06:25:17.589Z,1006.99
2018-04-15T06:26:17.576Z,1007.04
2018-04-15T06:27:17.548Z,1007.00
2018-04-15T06:28:38.544Z,1006.98
2018-04-15T06:29:38.524Z,1006.95
2018-04-15T06:30:17.504Z,1006.96
2018-04-15T06:31:17.504Z,1006.92
2018-04-15T06:32:17.469Z,1006.94
2018-04-15T06:33:38.445Z,1006.92
2018-04-15T06:34:38.440Z,1006.87
2018-04-15T06:35:17.408Z,1006.85
2018-04-15T06:36:17.400Z,1006.81
2018-04-15T06:37:17.398Z,1006.82
2018-04-15T06:38:38.397Z,1006.83
2018-04-15T06:39:38.352Z,1006.77
2018-04-15T06:40:17.323Z,1006.77
2018-04-15T06:41:17.335Z,1006.76
2018-04-15T06:42:17.293Z,1006.76
2018-04-15T06:43:38.317Z,1006.69
2018-04-15T06:44:38.299Z,1006.72
2018-04-15T06:45:17.270Z,1006.69
2018-04-15T06:46:17.238Z,1006.68
2018-04-15T06:47:17.208Z,1006.64
2018-04-15T06:48:38.204Z,1006.60
2018-04-15T06:49:38.170Z,1006.65
2018-04-15T06:50:17.183Z,1006.60
2018-04-15T06:51:17.141Z,1006.62
2018-04-15T06:52:17.122Z,1006.62
2018-04-15T06:53:38.105Z,1006.60
2018-04-15T06:54:38.101Z,1006.59
2018-04-15T06:55:17.077Z,1006.57
2018-04-15T06:56:17.072Z,1006.60
2018-04-15T06:57:17.045Z,1006.60
2018-04-15T06:58:38.021Z,1006.60
2018-04-15T06:59:38.005Z,1006.61
2018-04-15T07:00:16.986Z,1006.58
2018-04-15T07:01:17.001Z,1006.61
2018-04-15T07:02:16.977Z,1006.59
2018-04-15T07:03:37.960Z,1006.58
2018-04-15T07:04:37.946Z,1006.58
2018-04-15T07:05:16.913Z,1006.55
2018-04-15T07:06:16.885Z,1006.50
2018-04-15T07:07:16.898Z,1006.48
2018-04-15T07:08:37.866Z,1006.46
2018-04-15T07:09:37.885Z,1006.45
2018-04-15T07:10:16.817Z,1006.44
2018-04-15T07:11:16.800Z,1006.43
2018-04-15T07:12:16.787Z,1006.40
2018-04-15T07:13:37.805Z,1006.41
2018-04-15T07:14:37.746Z,1006.40
2018-04-15T07:15:16.753Z,1006.40
2018-04-15T07:16:16.714Z,1006.36
2018-04-15T07:17:16.705Z,1006.34
2018-04-15T07:18:37.692Z,1006.29
2018-04-15T07:19:37.671Z,1006.28
2018-04-15T07:20:16.654Z,1006.28
2018-04-15T07:21:16.631Z,1006.27
2018-04-15T07:22:16.627Z,1006.21
2018-04-15T07:23:37.622Z,1006.19
2018-04-15T07:24:37.588Z,1006.20
2018-04-15T07:25:16.579Z,1006.17
2018-04-15T07:26:16.546Z,1006.22
2018-04-15T07:27:16.535Z,1006.23
2018-04-15T07:28:37.524Z,1006.22
2018-04-15T07:29:37.513Z,1006.24
2018-04-15T07:30:16.490Z,1006.23
2018-04-15T07:31:16.468Z,1006.21
2018-04-15T07:32:16.457Z,1006.17
2018-04-15T07:33:37.490Z,1006.19
2018-04-15T07:34:37.419Z,1006.18
2018-04-15T07:35:16.433Z,1006.24
2018-04-15T07:36:16.384Z,1006.22
2018-04-15T07:37:16.372Z,1006.25
2018-04-15T07:38:37.351Z,1006.24
2018-04-15T07:39:37.346Z,1006.22
2018-04-15T07:40:16.327Z,1006.19
2018-04-15T07:41:16.298Z,1006.19
2018-04-15T07:42:16.285Z,1006.18
2018-04-15T07:43:37.272Z,1006.14
2018-04-15T07:44:37.253Z,1006.13
2018-04-15T07:45:16.243Z,1006.12
2018-04-15T07:46:16.215Z,1006.17
2018-04-15T07:47:16.202Z,1006.14
2018-04-15T07:48:37.198Z,1006.16
2018-04-15T07:49:37.189Z,1006.19
2018-04-15T07:50:16.163Z,1006.13
2018-04-15T07:51:16.141Z,1006.11
2018-04-15T07:52:16.123Z,1006.14
2018-04-15T07:53:37.124Z,1006.13
2018-04-15T07:54:37.104Z,1006.09
2018-04-15T07:55:16.097Z,1006.06
2018-04-15T07:56:16.079Z,1006.06
2018-04-15T07:57:16.060Z,1006.00
2018-04-15T07:58:37.034Z,1006.02
2018-04-15T07:59:37.024Z,1005.97
2018-04-15T08:00:16.000Z,1005.95
2018-04-15T08:01:15.987Z,1005.93
2018-04-15T08:02:15.996Z,1005.99
2018-04-15T08:03:36.952Z,1005.93
2018-04-15T08:04:36.948Z,1005.92
2018-04-15T08:05:15.922Z,1005.95
2018-04-15T08:06:15.914Z,1005.93
2018-04-15T08:07:15.892Z,1005.97
2018-04-15T08:08:36.880Z,1006.00
2018-04-15T08:09:36.868Z,1006.01
2018-04-15T08:10:15.835Z,1006.05
2018-04-15T08:11:15.837Z,1006.05
2018-04-15T08:12:15.807Z,1006.03
2018-04-15T08:13:36.801Z,1005.99
2018-04-15T08:14:36.794Z,1005.98
2018-04-15T08:15:15.759Z,1005.95
2018-04-15T08:16:15.749Z,1005.94
2018-04-15T08:17:15.732Z,1005.95
2018-04-15T08:18:36.732Z,1005.94
2018-04-15T08:19:36.742Z,1005.85
2018-04-15T08:20:15.696Z,1005.83
2018-04-15T08:21:15.669Z,1005.88
2018-04-15T08:22:15.664Z,1005.88
2018-04-15T08:23:36.647Z,1005.85
2018-04-15T08:24:36.634Z,1005.93
2018-04-15T08:25:15.635Z,1005.87
2018-04-15T08:26:15.632Z,1005.88
2018-04-15T08:27:15.595Z,1005.85
2018-04-15T08:28:36.578Z,1005.85
2018-04-15T08:29:36.571Z,1005.83
2018-04-15T08:30:15.532Z,1005.85
2018-04-15T08:31:15.574Z,1005.80
2018-04-15T08:32:15.518Z,1005.82
2018-04-15T08:33:36.509Z,1005.82
2018-04-15T08:34:36.491Z,1005.78
2018-04-15T08:35:15.468Z,1005.76
2018-04-15T08:36:15.457Z,1005.75
2018-04-15T08:37:15.450Z,1005.74
2018-04-15T08:38:36.461Z,1005.73
2018-04-15T08:39:36.422Z,1005.70
2018-04-15T08:40:15.419Z,1005.65
2018-04-15T08:41:15.401Z,1005.66
2018-04-15T08:42:15.374Z,1005.64
2018-04-15T08:43:36.375Z,1005.68
2018-04-15T08:44:36.364Z,1005.66
2018-04-15T08:45:15.343Z,1005.62
2018-04-15T08:46:15.371Z,1005.66
2018-04-15T08:47:15.304Z,1005.66
2018-04-15T08:48:36.318Z,1005.61
2018-04-15T08:49:36.283Z,1005.62
2018-04-15T08:50:15.284Z,1005.60
2018-04-15T08:51:15.287Z,1005.63
2018-04-15T08:52:15.288Z,1005.59
2018-04-15T08:53:36.276Z,1005.59
2018-04-15T08:54:36.238Z,1005.58
2018-04-15T08:55:15.209Z,1005.57
2018-04-15T08:56:15.189Z,1005.58
2018-04-15T08:57:15.186Z,1005.56
2018-04-15T08:58:36.171Z,1005.55
2018-04-15T08:59:36.155Z,1005.55
2018-04-15T09:00:15.135Z,1005.55
2018-04-15T09:01:15.119Z,1005.54
2018-04-15T09:02:15.158Z,1005.51
2018-04-15T09:03:36.103Z,1005.51
2018-04-15T09:04:36.108Z,1005.51
2018-04-15T09:05:15.080Z,1005.50
2018-04-15T09:06:15.069Z,1005.50
2018-04-15T09:07:15.087Z,1005.51
2018-04-15T09:08:36.036Z,1005.47
2018-04-15T09:09:36.025Z,1005.48
2018-04-15T09:10:15.054Z,1005.47
2018-04-15T09:11:15.019Z,1005.49
2018-04-15T09:12:14.981Z,1005.51
2018-04-15T09:13:36.033Z,1005.51
2018-04-15T09:14:35.956Z,1005.53
2018-04-15T09:15:14.942Z,1005.52
2018-04-15T09:16:14.929Z,1005.51
2018-04-15T09:17:14.947Z,1005.52
2018-04-15T09:18:35.902Z,1005.49
2018-04-15T09:19:35.894Z,1005.51
2018-04-15T09:20:14.882Z,1005.55
2018-04-15T09:21:14.861Z,1005.50
2018-04-15T09:22:14.842Z,1005.53
2018-04-15T09:23:35.870Z,1005.55
2018-04-15T09:24:35.831Z,1005.53
2018-04-15T09:25:14.821Z,1005.50
2018-04-15T09:26:14.794Z,1005.47
2018-04-15T09:27:14.803Z,1005.40
2018-04-15T09:28:35.768Z,1005.42
2018-04-15T09:29:35.775Z,1005.34
2018-04-15T09:30:14.738Z,1005.33
2018-04-15T09:31:14.724Z,1005.31
2018-04-15T09:32:14.731Z,1005.30
2018-04-15T09:33:35.720Z,1005.24
2018-04-15T09:34:35.685Z,1005.23
2018-04-15T09:35:14.668Z,1005.19
2018-04-15T09:36:14.657Z,1005.17
2018-04-15T09:37:14.648Z,1005.19
2018-04-15T09:38:35.636Z,1005.21
2018-04-15T09:39:35.641Z,1005.23
2018-04-15T09:40:14.600Z,1005.23
2018-04-15T09:41:14.600Z,1005.18
2018-04-15T09:42:14.576Z,1005.11
2018-04-15T09:43:35.582Z,1005.11
2018-04-15T09:44:35.545Z,1005.13
2018-04-15T09:45:14.543Z,1005.13
2018-04-15T09:46:14.524Z,1005.13
2018-04-15T09:47:14.527Z,1005.11
2018-04-15T09:48:35.500Z,1005.13
2018-04-15T09:49:35.516Z,1005.17
2018-04-15T09:50:14.467Z,1005.16
2018-04-15T09:51:14.459Z,1005.18
2018-04-15T09:52:14.453Z,1005.22
2018-04-15T09:53:35.429Z,1005.21
2018-04-15T09:54:35.448Z,1005.24
2018-04-15T09:55:14.400Z,1005.22
2018-04-15T09:56:14.388Z,1005.23
2018-04-15T09:57:14.386Z,1005.19
2018-04-15T09:58:35.368Z,1005.22
2018-04-15T09:59:35.368Z,1005.22
2018-04-15T10:00:14.330Z,1005.18
2018-04-15T10:01:14.308Z,1005.13
2018-04-15T10:02:14.306Z,1005.13
2018-04-15T10:03:35.305Z,1005.10
2018-04-15T10:04:35.273Z,1005.04
2018-04-15T10:05:14.290Z,1005.06
2018-04-15T10:06:14.249Z,1005.04
2018-04-15T10:07:14.232Z,1005.01
2018-04-15T10:08:35.240Z,1005.00
2018-04-15T10:09:35.214Z,1005.00
2018-04-15T10:10:14.224Z,1004.93
2018-04-15T10:11:14.179Z,1005.00
2018-04-15T10:12:14.169Z,1004.98
2018-04-15T10:13:35.169Z,1004.92
2018-04-15T10:14:35.157Z,1004.92
2018-04-15T10:15:14.128Z,1004.92
2018-04-15T10:16:14.111Z,1004.90
2018-04-15T10:17:14.103Z,1004.92
2018-04-15T10:18:35.090Z,1004.95
2018-04-15T10:19:35.071Z,1004.95
2018-04-15T10:20:14.072Z,1004.96
2018-04-15T10:21:14.048Z,1005.00
2018-04-15T10:22:14.064Z,1005.00
2018-04-15T10:23:35.020Z,1005.04
2018-04-15T10:24:35.013Z,1005.05
2018-04-15T10:25:13.996Z,1005.06
2018-04-15T10:26:13.978Z,1005.05
2018-04-15T10:27:13.977Z,1004.99
2018-04-15T10:28:34.967Z,1005.00
2018-04-15T10:29:34.964Z,1005.04
2018-04-15T10:30:13.953Z,1005.01
2018-04-15T10:31:13.931Z,1005.00
2018-04-15T10:32:13.905Z,1005.05
2018-04-15T10:33:34.899Z,1005.03
2018-04-15T10:34:34.889Z,1004.99
2018-04-15T10:35:13.883Z,1004.97
2018-04-15T10:36:13.858Z,1004.97
2018-04-15T10:37:13.859Z,1004.99
2018-04-15T10:38:34.829Z,1004.94
2018-04-15T10:39:34.826Z,1004.94
2018-04-15T10:40:13.804Z,1005.00
2018-04-15T10:41:13.818Z,1005.01
2018-04-15T10:42:13.807Z,1004.99
2018-04-15T10:43:34.792Z,1004.96
2018-04-15T10:44:34.779Z,1004.92
2018-04-15T10:45:13.754Z,1004.89
2018-04-15T10:46:13.786Z,1004.86
2018-04-15T10:47:13.769Z,1004.90
2018-04-15T10:48:34.715Z,1004.86
2018-04-15T10:49:34.704Z,1004.87
2018-04-15T10:50:13.724Z,1004.87
2018-04-15T10:51:13.674Z,1004.86
2018-04-15T10:52:13.664Z,1004.81
2018-04-15T10:53:34.664Z,1004.83
2018-04-15T10:54:34.670Z,1004.80
2018-04-15T10:55:13.632Z,1004.82
2018-04-15T10:56:13.636Z,1004.83
2018-04-15T10:57:13.597Z,1004.83
2018-04-15T10:58:34.591Z,1004.80
2018-04-15T10:59:34.684Z,1004.79
2018-04-15T11:00:13.560Z,1004.76
2018-04-15T11:01:13.551Z,1004.75
2018-04-15T11:02:13.533Z,1004.77
2018-04-15T11:03:34.535Z,1004.75
2018-04-15T11:04:34.523Z,1004.73
2018-04-15T11:05:13.551Z,1004.74
2018-04-15T11:06:13.502Z,1004.74
2018-04-15T11:07:13.487Z,1004.73
2018-04-15T11:08:34.485Z,1004.70
2018-04-15T11:09:34.473Z,1004.68
2018-04-15T11:10:13.460Z,1004.67
2018-04-15T11:11:13.433Z,1004.62
2018-04-15T11:12:13.434Z,1004.66
2018-04-15T11:13:34.438Z,1004.59
2018-04-15T11:14:34.408Z,1004.63
2018-04-15T11:15:13.437Z,1004.57
2018-04-15T11:16:13.371Z,1004.56
2018-04-15T11:17:13.423Z,1004.51
2018-04-15T11:18:34.346Z,1004.53
2018-04-15T11:19:34.347Z,1004.49
2018-04-15T11:20:13.335Z,1004.49
2018-04-15T11:21:13.307Z,1004.49
2018-04-15T11:22:13.305Z,1004.52
2018-04-15T11:23:34.308Z,1004.47
2018-04-15T11:24:34.312Z,1004.46
2018-04-15T11:25:13.275Z,1004.47
2018-04-15T11:26:13.247Z,1004.45
2018-04-15T11:27:13.269Z,1004.48
2018-04-15T11:28:34.230Z,1004.44
2018-04-15T11:29:34.216Z,1004.50
2018-04-15T11:30:13.228Z,1004.44
2018-04-15T11:31:13.221Z,1004.45
2018-04-15T11:32:13.181Z,1004.49
2018-04-15T11:33:34.167Z,1004.54
2018-04-15T11:34:34.155Z,1004.47
2018-04-15T11:35:13.162Z,1004.49
2018-04-15T11:36:13.129Z,1004.49
2018-04-15T11:37:13.149Z,1004.43
2018-04-15T11:38:34.106Z,1004.46
2018-04-15T11:39:34.098Z,1004.44
2018-04-15T11:40:13.111Z,1004.44
2018-04-15T11:41:13.074Z,1004.47
2018-04-15T11:42:13.074Z,1004.40
2018-04-15T11:43:34.059Z,1004.44
2018-04-15T11:44:34.048Z,1004.40
2018-04-15T11:45:13.025Z,1004.42
2018-04-15T11:46:13.007Z,1004.38
2018-04-15T11:47:12.999Z,1004.41
2018-04-15T11:48:34.044Z,1004.43
2018-04-15T11:49:34.004Z,1004.39
2018-04-15T11:50:12.951Z,1004.44
2018-04-15T11:51:12.965Z,1004.41
2018-04-15T11:52:12.952Z,1004.38
2018-04-15T11:53:33.920Z,1004.33
2018-04-15T11:54:33.947Z,1004.34
2018-04-15T11:55:12.896Z,1004.27
2018-04-15T11:56:12.946Z,1004.31
2018-04-15T11:57:12.870Z,1004.34
2018-04-15T11:58:33.897Z,1004.35
2018-04-15T11:59:33.844Z,1004.40
2018-04-15T12:00:12.824Z,1004.30
2018-04-15T12:01:12.809Z,1004.30
2018-04-15T12:02:12.844Z,1004.33
2018-04-15T12:03:33.800Z,1004.33
2018-04-15T12:04:33.778Z,1004.31
2018-04-15T12:05:12.765Z,1004.30